createdAt,value
2017-11-10T00:00:39.741Z,82.40
2017-11-10T00:03:07.275Z,82.80
2017-11-10T00:05:35.613Z,82.80
2017-11-10T00:08:03.910Z,82.20
2017-11-10T00:10:31.441Z,82.00
2017-11-10T00:12:59.764Z,81.70
2017-11-10T00:15:27.289Z,81.10
2017-11-10T00:17:54.831Z,80.30
2017-11-10T00:20:22.392Z,81.20
2017-11-10T00:22:49.931Z,80.90
2017-11-10T00:25:17.456Z,80.90
2017-11-10T00:27:45.024Z,81.00
2017-11-10T00:30:12.543Z,81.40
2017-11-10T00:32:40.072Z,81.00
2017-11-10T00:35:07.622Z,81.10
2017-11-10T00:37:35.160Z,81.40
2017-11-10T00:40:02.682Z,81.40
2017-11-10T00:42:30.238Z,81.40
2017-11-10T00:44:58.542Z,81.40
2017-11-10T00:47:26.068Z,81.40
2017-11-10T00:49:53.609Z,81.40
2017-11-10T00:52:21.166Z,82.40
2017-11-10T00:54:48.719Z,81.60
2017-11-10T00:57:16.293Z,81.50
2017-11-10T00:59:43.821Z,82.10
2017-11-10T01:02:11.350Z,82.80
2017-11-10T01:04:38.908Z,82.00
2017-11-10T01:07:06.464Z,82.00
2017-11-10T01:09:33.989Z,82.20
2017-11-10T01:12:01.532Z,82.30
2017-11-10T01:14:29.056Z,82.10
2017-11-10T01:16:59.526Z,82.10
2017-11-10T01:19:27.072Z,82.90
2017-11-10T01:21:54.613Z,82.50
2017-11-10T01:24:22.165Z,82.70
2017-11-10T01:26:49.718Z,82.10
2017-11-10T01:29:18.339Z,82.40
2017-11-10T01:31:46.644Z,82.10
2017-11-10T01:34:14.196Z,82.30
2017-11-10T01:36:41.734Z,82.80
2017-11-10T01:39:09.256Z,83.30
2017-11-10T01:41:36.808Z,82.80
2017-11-10T01:44:09.999Z,82.70
2017-11-10T01:46:37.552Z,82.50
2017-11-10T01:49:05.076Z,83.30
2017-11-10T01:51:32.603Z,82.60
2017-11-10T01:54:00.175Z,82.50
2017-11-10T01:56:27.738Z,83.00
2017-11-10T01:58:55.280Z,83.50
2017-11-10T02:01:22.820Z,82.30
2017-11-10T02:03:51.524Z,81.80
2017-11-10T02:06:22.462Z,82.60
2017-11-10T02:08:53.025Z,83.10
2017-11-10T02:11:20.577Z,82.20
2017-11-10T02:13:48.124Z,81.90
2017-11-10T02:16:15.644Z,82.10
2017-11-10T02:18:43.155Z,82.80
2017-11-10T02:21:10.719Z,82.10
2017-11-10T02:23:38.245Z,81.70
2017-11-10T02:26:05.785Z,81.50
2017-11-10T02:28:33.373Z,80.30
2017-11-10T02:31:00.908Z,80.10
2017-11-10T02:33:28.437Z,80.40
2017-11-10T02:35:56.006Z,79.90
2017-11-10T02:38:23.539Z,80.30
2017-11-10T02:40:51.827Z,79.70
2017-11-10T02:43:19.374Z,79.80
2017-11-10T02:45:46.915Z,80.00
2017-11-10T02:48:14.456Z,80.40
2017-11-10T02:50:42.005Z,79.70
2017-11-10T02:53:09.537Z,79.40
2017-11-10T02:55:37.062Z,78.30
2017-11-10T02:58:05.384Z,79.60
2017-11-10T03:00:32.918Z,79.10
2017-11-10T03:03:00.452Z,79.50
2017-11-10T03:05:28.001Z,79.60
2017-11-10T03:07:55.533Z,79.70
2017-11-10T03:10:23.060Z,79.80
2017-11-10T03:12:50.612Z,79.80
2017-11-10T03:15:18.132Z,79.10
2017-11-10T03:17:46.455Z,79.90
2017-11-10T03:20:14.799Z,79.30
2017-11-10T03:22:42.346Z,78.60
2017-11-10T03:25:09.881Z,78.40
2017-11-10T03:27:37.453Z,79.30
2017-11-10T03:30:05.747Z,78.80
2017-11-10T03:32:33.271Z,79.40
2017-11-10T03:35:00.824Z,78.80
2017-11-10T03:37:28.356Z,78.60
2017-11-10T03:39:55.887Z,78.60
2017-11-10T03:42:24.200Z,78.80
2017-11-10T03:44:51.726Z,78.80
2017-11-10T03:47:19.246Z,79.00
2017-11-10T03:49:46.792Z,79.20
2017-11-10T03:52:14.317Z,79.90
2017-11-10T03:54:41.845Z,81.10
2017-11-10T03:57:09.468Z,80.70
2017-11-10T03:59:37.096Z,81.00
2017-11-10T04:02:05.425Z,82.60
2017-11-10T04:04:32.971Z,82.00
2017-11-10T04:07:00.506Z,82.00
2017-11-10T04:09:28.061Z,81.90
2017-11-10T04:11:55.616Z,82.70
2017-11-10T04:14:23.129Z,81.90
2017-11-10T04:16:50.673Z,81.60
2017-11-10T04:19:18.216Z,81.60
2017-11-10T04:21:45.748Z,82.10
2017-11-10T04:24:13.287Z,83.00
2017-11-10T04:26:41.604Z,84.30
2017-11-10T04:29:09.136Z,83.90
2017-11-10T04:31:36.657Z,83.30
2017-11-10T04:34:04.975Z,85.00
2017-11-10T04:36:32.533Z,85.20
2017-11-10T04:39:00.062Z,84.50
2017-11-10T04:41:27.608Z,85.30
2017-11-10T04:43:55.136Z,85.90
2017-11-10T04:46:22.682Z,85.90
2017-11-10T04:48:52.610Z,86.20
2017-11-10T04:51:22.535Z,85.60
2017-11-10T04:53:50.081Z,86.60
2017-11-10T04:56:18.401Z,86.60
2017-11-10T04:58:46.688Z,86.60
2017-11-10T05:01:14.228Z,86.00
2017-11-10T05:03:41.784Z,86.60
2017-11-10T05:06:09.333Z,86.00
2017-11-10T05:08:36.855Z,86.20
2017-11-10T05:11:04.395Z,86.00
2017-11-10T05:13:31.975Z,86.50
2017-11-10T05:16:00.282Z,86.30
2017-11-10T05:18:27.930Z,86.20
2017-11-10T05:20:55.472Z,86.00
2017-11-10T05:23:24.919Z,85.70
2017-11-10T05:25:53.235Z,87.00
2017-11-10T05:28:20.761Z,86.00
2017-11-10T05:30:48.295Z,85.90
2017-11-10T05:33:15.856Z,85.00
2017-11-10T05:35:43.422Z,85.10
2017-11-10T05:38:11.028Z,84.80
2017-11-10T05:40:38.590Z,85.20
2017-11-10T05:43:06.133Z,85.10
2017-11-10T05:45:33.665Z,85.40
2017-11-10T05:48:01.212Z,85.80
2017-11-10T05:50:28.740Z,86.10
2017-11-10T05:52:57.038Z,86.70
2017-11-10T05:55:24.586Z,86.50
2017-11-10T05:57:52.113Z,86.50
2017-11-10T06:00:19.652Z,86.50
2017-11-10T06:02:47.204Z,86.70
2017-11-10T06:05:14.742Z,86.80
2017-11-10T06:07:42.290Z,86.60
2017-11-10T06:10:09.838Z,87.20
2017-11-10T06:12:37.393Z,87.00
2017-11-10T06:15:04.914Z,87.60
2017-11-10T06:17:32.700Z,87.40
2017-11-10T06:20:00.229Z,87.50
2017-11-10T06:22:27.764Z,87.90
2017-11-10T06:24:55.350Z,88.00
2017-11-10T06:27:22.883Z,88.00
2017-11-10T06:29:50.415Z,88.00
2017-11-10T06:32:17.960Z,88.20
2017-11-10T06:34:45.503Z,88.20
2017-11-10T06:37:13.041Z,88.20
2017-11-10T06:39:40.588Z,88.20
2017-11-10T06:42:08.125Z,88.10
2017-11-10T06:44:35.660Z,88.30
2017-11-10T06:47:03.234Z,88.90
2017-11-10T06:49:30.744Z,88.60
2017-11-10T06:51:58.265Z,89.00
2017-11-10T06:54:25.814Z,88.60
2017-11-10T06:56:53.342Z,89.00
2017-11-10T06:59:20.911Z,89.10
2017-11-10T07:01:49.230Z,89.30
2017-11-10T07:04:17.537Z,88.10
2017-11-10T07:06:45.072Z,88.80
2017-11-10T07:09:12.626Z,88.70
2017-11-10T07:11:40.372Z,88.00
2017-11-10T07:14:17.486Z,89.00
2017-11-10T07:16:45.010Z,89.00
2017-11-10T07:19:13.183Z,89.00
2017-11-10T07:21:40.813Z,88.90
2017-11-10T07:24:08.443Z,88.60
2017-11-10T07:26:36.748Z,89.20
2017-11-10T07:29:04.353Z,89.10
2017-11-10T07:31:31.895Z,89.50
2017-11-10T07:33:59.440Z,88.40
2017-11-10T07:36:27.006Z,88.80
2017-11-10T07:38:54.544Z,89.00
2017-11-10T07:41:22.130Z,88.50
2017-11-10T07:43:49.694Z,88.30
2017-11-10T07:46:17.271Z,88.30
2017-11-10T07:48:44.901Z,87.90
2017-11-10T07:51:12.489Z,87.90
2017-11-10T07:53:40.017Z,86.80
2017-11-10T07:56:07.549Z,86.70
2017-11-10T07:58:35.109Z,86.90
2017-11-10T08:01:02.646Z,86.30
2017-11-10T08:03:30.196Z,86.70
2017-11-10T08:05:57.762Z,86.30
2017-11-10T08:08:25.294Z,86.00
2017-11-10T08:10:52.844Z,86.10
2017-11-10T08:13:20.431Z,85.40
2017-11-10T08:15:48.743Z,86.50
2017-11-10T08:18:16.275Z,85.60
2017-11-10T08:20:43.847Z,85.00
2017-11-10T08:23:11.412Z,85.10
2017-11-10T08:25:38.931Z,85.80
2017-11-10T08:28:06.501Z,85.60
2017-11-10T08:30:35.002Z,86.70
2017-11-10T08:33:02.538Z,85.10
2017-11-10T08:35:31.043Z,85.30
2017-11-10T08:37:59.755Z,85.10
2017-11-10T08:40:27.390Z,84.70
2017-11-10T08:42:55.829Z,85.80
2017-11-10T08:45:23.632Z,85.00
2017-11-10T08:47:52.177Z,85.20
2017-11-10T08:50:20.589Z,86.30
2017-11-10T08:52:48.477Z,85.50
2017-11-10T08:55:16.085Z,85.20
2017-11-10T08:57:43.658Z,85.80
2017-11-10T09:00:11.275Z,85.70
2017-11-10T09:02:38.861Z,85.80
2017-11-10T09:05:10.567Z,86.60
2017-11-10T09:07:38.265Z,85.40
2017-11-10T09:10:05.841Z,86.80
2017-11-10T09:12:33.485Z,86.40
2017-11-10T09:15:01.183Z,86.80
2017-11-10T09:17:28.922Z,87.00
2017-11-10T09:19:56.556Z,87.30
2017-11-10T09:22:24.094Z,87.00
2017-11-10T09:24:51.633Z,87.30
2017-11-10T09:27:31.386Z,87.40
2017-11-10T09:30:04.962Z,88.30
2017-11-10T09:36:01.940Z,88.00
2017-11-10T09:38:30.287Z,89.80
2017-11-10T09:41:17.592Z,89.10
2017-11-10T09:43:45.671Z,89.10
2017-11-10T09:46:14.928Z,89.50
2017-11-10T09:48:49.574Z,90.00
2017-11-10T09:51:23.497Z,90.00
2017-11-10T09:53:52.944Z,89.50
2017-11-10T09:59:35.673Z,90.10
2017-11-10T10:02:08.917Z,89.40
2017-11-10T10:04:53.319Z,89.80
2017-11-10T10:07:24.475Z,89.40
2017-11-10T10:09:58.416Z,90.40
2017-11-10T10:12:41.820Z,90.00
2017-11-10T10:18:34.198Z,90.40
2017-11-10T10:21:17.565Z,90.00
2017-11-10T10:23:45.086Z,90.40
2017-11-10T10:26:12.661Z,90.20
2017-11-10T10:28:42.028Z,90.20
2017-11-10T10:31:10.602Z,90.40
2017-11-10T10:33:38.136Z,90.10
2017-11-10T10:36:06.044Z,90.40
2017-11-10T10:38:33.609Z,90.40
2017-11-10T10:41:01.418Z,90.40
2017-11-10T10:43:28.999Z,90.20
2017-11-10T10:45:56.565Z,90.10
2017-11-10T10:48:24.960Z,90.90
2017-11-10T10:50:52.533Z,90.60
2017-11-10T10:53:23.190Z,90.40
2017-11-10T10:55:52.642Z,90.80
2017-11-10T10:58:20.377Z,90.60
2017-11-10T11:00:48.095Z,90.40
2017-11-10T11:03:16.641Z,90.50
2017-11-10T11:05:44.289Z,90.60
2017-11-10T11:08:12.621Z,91.00
2017-11-10T11:10:40.232Z,90.80
2017-11-10T11:13:07.769Z,90.60
2017-11-10T11:15:35.293Z,90.90
2017-11-10T11:18:03.731Z,91.50
2017-11-10T11:20:31.268Z,90.80
2017-11-10T11:22:58.831Z,90.90
2017-11-10T11:25:26.402Z,90.70
2017-11-10T11:27:54.735Z,90.90
2017-11-10T11:30:22.342Z,90.40
2017-11-10T11:32:49.943Z,90.70
2017-11-10T11:35:17.866Z,90.80
2017-11-10T11:37:45.478Z,90.40
2017-11-10T11:40:13.034Z,90.30
2017-11-10T11:42:40.577Z,90.80
2017-11-10T11:45:08.191Z,90.40
2017-11-10T11:47:37.477Z,90.50
2017-11-10T11:50:05.787Z,91.10
2017-11-10T11:52:34.723Z,90.60
2017-11-10T11:55:02.436Z,90.80
2017-11-10T11:57:30.000Z,90.60
2017-11-10T11:59:57.548Z,90.80
2017-11-10T12:02:25.140Z,90.70
2017-11-10T12:04:52.671Z,90.60
2017-11-10T12:07:20.194Z,90.60
2017-11-10T12:09:48.730Z,90.70
2017-11-10T12:12:16.298Z,91.10
2017-11-10T12:14:44.688Z,91.20
2017-11-10T12:17:12.286Z,90.90
2017-11-10T12:19:39.829Z,90.90
2017-11-10T12:22:07.363Z,90.80
2017-11-10T12:24:34.904Z,91.20
2017-11-10T12:27:02.445Z,91.20
2017-11-10T12:29:29.975Z,90.70
2017-11-10T12:31:57.553Z,91.00
2017-11-10T12:34:25.087Z,90.80
2017-11-10T12:36:52.612Z,90.80
2017-11-10T12:39:20.166Z,90.80
2017-11-10T12:41:47.687Z,90.70
2017-11-10T12:44:15.200Z,90.20
2017-11-10T12:46:43.509Z,90.10
2017-11-10T12:49:11.074Z,89.80
2017-11-10T12:51:39.864Z,90.00
2017-11-10T12:54:07.461Z,89.80
2017-11-10T12:56:35.073Z,89.20
2017-11-10T12:59:03.782Z,89.70
2017-11-10T13:01:31.501Z,89.50
2017-11-10T13:03:59.806Z,90.10
2017-11-10T13:06:28.799Z,89.70
2017-11-10T13:08:56.513Z,89.60
2017-11-10T13:11:24.142Z,88.70
2017-11-10T13:13:51.829Z,88.20
2017-11-10T13:16:19.408Z,89.40
2017-11-10T13:18:46.947Z,88.30
2017-11-10T13:21:14.480Z,88.40
2017-11-10T13:23:42.027Z,88.20
2017-11-10T13:26:09.562Z,88.30
2017-11-10T13:28:37.644Z,88.90
2017-11-10T13:31:07.170Z,89.00
2017-11-10T13:33:34.718Z,88.90
2017-11-10T13:36:02.246Z,89.40
2017-11-10T13:38:30.578Z,89.70
2017-11-10T13:40:58.104Z,88.90
2017-11-10T13:43:27.342Z,89.70
2017-11-10T13:45:54.895Z,88.90
2017-11-10T13:48:22.664Z,90.00
2017-11-10T13:50:50.193Z,90.20
2017-11-10T13:53:17.803Z,90.20
2017-11-10T13:55:45.341Z,90.20
2017-11-10T13:58:13.194Z,90.20
2017-11-10T14:00:40.837Z,89.80
2017-11-10T14:03:08.356Z,90.10
2017-11-10T14:05:35.885Z,90.40
2017-11-10T14:08:03.456Z,90.00
2017-11-10T14:10:30.996Z,90.00
2017-11-10T14:12:59.666Z,90.00
2017-11-10T14:15:27.357Z,90.00
2017-11-10T14:17:56.413Z,90.30
2017-11-10T14:20:23.992Z,90.20
2017-11-10T14:22:51.696Z,90.30
2017-11-10T14:25:19.640Z,90.20
2017-11-10T14:27:47.234Z,90.00
2017-11-10T14:30:14.793Z,90.30
2017-11-10T14:32:43.323Z,90.40
2017-11-10T14:35:10.972Z,89.90
2017-11-10T14:37:39.317Z,90.50
2017-11-10T14:40:07.125Z,90.20
2017-11-10T14:42:43.462Z,90.10
2017-11-10T14:45:11.740Z,90.20
2017-11-10T14:47:39.933Z,90.50
2017-11-10T14:50:07.865Z,90.30
2017-11-10T14:52:35.389Z,90.40
2017-11-10T14:55:02.964Z,90.50
2017-11-10T14:57:30.480Z,90.80
2017-11-10T14:59:58.074Z,90.30
2017-11-10T15:02:25.714Z,90.70
2017-11-10T15:04:53.240Z,90.60
2017-11-10T15:07:20.762Z,91.00
2017-11-10T15:09:48.320Z,91.00
2017-11-10T15:12:16.903Z,90.90
2017-11-10T15:14:44.797Z,90.70
2017-11-10T15:17:12.940Z,90.90
2017-11-10T15:19:40.724Z,90.90
2017-11-10T15:22:09.264Z,91.10
2017-11-10T15:24:36.861Z,90.90
2017-11-10T15:27:04.625Z,90.40
2017-11-10T15:29:32.244Z,90.60
2017-11-10T15:32:00.574Z,90.40
2017-11-10T15:34:28.118Z,90.40
2017-11-10T15:36:56.622Z,90.20
2017-11-10T15:39:24.434Z,90.40
2017-11-10T15:41:53.091Z,90.40
2017-11-10T15:44:20.880Z,90.10
2017-11-10T15:46:49.724Z,90.00
2017-11-10T15:49:17.362Z,90.20
2017-11-10T15:51:44.934Z,90.10
2017-11-10T15:54:13.249Z,90.60
2017-11-10T15:56:40.789Z,90.10
2017-11-10T15:59:08.501Z,90.00
2017-11-10T16:01:37.140Z,90.40
2017-11-10T16:04:05.463Z,90.70
2017-11-10T16:06:32.997Z,90.10
2017-11-10T16:09:00.559Z,89.80
2017-11-10T16:11:28.289Z,89.70
2017-11-10T16:13:55.816Z,90.00
2017-11-10T16:16:24.126Z,89.40
2017-11-10T16:18:51.667Z,89.50
2017-11-10T16:21:19.188Z,88.80
2017-11-10T16:23:46.762Z,88.90
2017-11-10T16:26:14.277Z,89.40
2017-11-10T16:28:41.816Z,88.90
2017-11-10T16:31:09.367Z,89.10
2017-11-10T16:33:36.889Z,89.50
2017-11-10T16:36:05.178Z,89.20
2017-11-10T16:38:32.732Z,89.00
2017-11-10T16:41:01.016Z,89.30
2017-11-10T16:43:28.549Z,88.70
2017-11-10T16:45:56.084Z,89.00
2017-11-10T16:48:23.595Z,89.30
2017-11-10T16:50:51.157Z,89.00
2017-11-10T16:53:18.706Z,89.00
2017-11-10T16:55:46.232Z,89.10
2017-11-10T16:58:13.760Z,89.70
2017-11-10T17:00:42.089Z,90.20
2017-11-10T17:03:09.739Z,89.60
2017-11-10T17:05:38.189Z,89.50
2017-11-10T17:08:05.815Z,89.70
2017-11-10T17:10:33.373Z,90.00
2017-11-10T17:13:00.918Z,90.00
2017-11-10T17:15:28.474Z,90.30
2017-11-10T17:17:56.018Z,90.20
2017-11-10T17:20:23.555Z,90.20
2017-11-10T17:22:51.123Z,90.40
2017-11-10T17:25:19.241Z,90.10
2017-11-10T17:27:47.307Z,90.00
2017-11-10T17:30:14.863Z,90.00
2017-11-10T17:32:42.424Z,90.10
2017-11-10T17:35:10.005Z,90.90
2017-11-10T17:37:37.603Z,90.70
2017-11-10T17:40:05.220Z,91.40
2017-11-10T17:42:33.259Z,90.90
2017-11-10T17:45:01.491Z,90.80
2017-11-10T17:47:29.627Z,90.90
2017-11-10T17:49:57.165Z,90.80
2017-11-10T17:55:21.252Z,90.30
2017-11-10T17:57:49.011Z,90.50
2017-11-10T18:00:17.290Z,90.30
2017-11-10T18:02:45.575Z,90.60
2017-11-10T18:05:38.839Z,90.70
2017-11-10T18:08:07.780Z,90.60
2017-11-10T18:10:37.081Z,90.60
2017-11-10T18:13:05.241Z,90.60
2017-11-10T18:15:33.086Z,90.70
2017-11-10T18:18:01.461Z,91.10
2017-11-10T18:20:29.703Z,91.00
2017-11-10T18:22:57.806Z,91.10
2017-11-10T18:25:25.598Z,91.30
2017-11-10T18:27:55.284Z,91.60
2017-11-10T18:30:23.099Z,91.50
2017-11-10T18:32:51.113Z,91.60
2017-11-10T18:35:19.528Z,91.80
2017-11-10T18:37:47.174Z,91.70
2017-11-10T18:40:14.982Z,91.30
2017-11-10T18:42:43.127Z,91.70
2017-11-10T18:45:10.904Z,91.50
2017-11-10T18:47:38.699Z,91.40
2017-11-10T18:50:06.399Z,91.30
2017-11-10T18:52:35.064Z,91.40
2017-11-10T18:55:02.922Z,91.20
2017-11-10T18:57:30.598Z,91.10
2017-11-10T18:59:58.539Z,91.10
2017-11-10T19:02:26.369Z,91.10
2017-11-10T19:04:54.301Z,91.00
2017-11-10T19:07:24.632Z,91.00
2017-11-10T19:09:54.421Z,90.90
2017-11-10T19:12:25.280Z,91.00
2017-11-10T19:14:54.961Z,91.40
2017-11-10T19:17:25.722Z,90.80
2017-11-10T19:19:55.594Z,90.80
2017-11-10T19:22:25.710Z,91.00
2017-11-10T19:24:55.045Z,90.60
2017-11-10T19:27:24.603Z,90.60
2017-11-10T19:29:53.905Z,90.40
2017-11-10T19:32:24.536Z,90.60
2017-11-10T19:34:54.256Z,90.00
2017-11-10T19:37:23.274Z,90.40
2017-11-10T19:40:02.675Z,90.10
2017-11-10T19:42:30.237Z,89.70
2017-11-10T19:44:57.778Z,90.00
2017-11-10T19:47:25.361Z,90.20
2017-11-10T19:49:53.651Z,90.30
2017-11-10T19:52:21.170Z,89.70
2017-11-10T19:54:48.720Z,89.90
2017-11-10T19:57:17.040Z,90.00
2017-11-10T19:59:44.604Z,89.40
2017-11-10T20:02:13.109Z,90.00
2017-11-10T20:04:41.823Z,89.60
2017-11-10T20:07:09.373Z,88.60
2017-11-10T20:09:36.978Z,88.80
2017-11-10T20:12:04.749Z,88.50
2017-11-10T20:14:32.276Z,87.50
2017-11-10T20:16:59.845Z,87.10
2017-11-10T20:19:27.401Z,87.70
2017-11-10T20:21:55.063Z,86.60
2017-11-10T20:24:22.975Z,86.20
2017-11-10T20:26:50.552Z,86.50
2017-11-10T20:29:18.297Z,86.80
2017-11-10T20:31:46.202Z,86.70
2017-11-10T20:34:14.157Z,86.10
2017-11-10T20:36:41.852Z,84.80
2017-11-10T20:39:09.562Z,84.50
2017-11-10T20:41:37.328Z,85.00
2017-11-10T20:44:06.038Z,85.40
2017-11-10T20:46:34.635Z,85.40
2017-11-10T20:49:02.418Z,84.60
2017-11-10T20:51:30.088Z,84.40
2017-11-10T20:53:57.636Z,82.80
2017-11-10T20:56:25.269Z,83.50
2017-11-10T20:58:53.214Z,83.80
2017-11-10T21:01:20.949Z,82.10
2017-11-10T21:03:49.365Z,83.10
2017-11-10T21:06:16.924Z,83.90
2017-11-10T21:08:44.867Z,83.90
2017-11-10T21:11:12.405Z,84.00
2017-11-10T21:13:41.821Z,84.20
2017-11-10T21:16:09.716Z,82.30
2017-11-10T21:18:37.374Z,82.30
2017-11-10T21:21:04.931Z,82.30
2017-11-10T21:23:32.492Z,82.80
2017-11-10T21:26:00.379Z,82.40
2017-11-10T21:28:27.964Z,81.10
2017-11-10T21:30:57.479Z,80.70
2017-11-10T21:33:25.519Z,81.20
2017-11-10T21:35:53.264Z,80.40
2017-11-10T21:38:20.872Z,80.80
2017-11-10T21:40:49.481Z,81.10
2017-11-10T21:43:17.382Z,79.80
2017-11-10T21:45:45.300Z,80.60
2017-11-10T21:48:13.563Z,80.70
2017-11-10T21:50:41.930Z,79.60
2017-11-10T21:53:09.694Z,79.20
2017-11-10T21:55:38.337Z,80.30
2017-11-10T21:58:06.740Z,81.40
2017-11-10T22:00:35.633Z,80.60
2017-11-10T22:03:03.395Z,79.70
2017-11-10T22:05:31.049Z,80.40
2017-11-10T22:07:58.628Z,79.50
2017-11-10T22:10:26.195Z,79.40
2017-11-10T22:12:53.745Z,79.20
2017-11-10T22:15:21.319Z,79.10
2017-11-10T22:17:49.068Z,79.90
2017-11-10T22:20:17.384Z,79.90
2017-11-10T22:22:46.518Z,79.30
2017-11-10T22:25:15.361Z,78.90
2017-11-10T22:27:43.234Z,79.00
2017-11-10T22:30:11.259Z,79.30
2017-11-10T22:32:38.914Z,79.10
2017-11-10T22:35:07.573Z,80.70
2017-11-10T22:37:35.167Z,80.50
2017-11-10T22:40:02.717Z,80.60
2017-11-10T22:42:30.257Z,80.10
2017-11-10T22:44:57.851Z,80.80
2017-11-10T22:47:25.382Z,79.20
2017-11-10T22:49:52.932Z,81.20
2017-11-10T22:52:20.503Z,81.10
2017-11-10T22:54:48.790Z,80.60
2017-11-10T22:57:16.333Z,79.80
2017-11-10T22:59:43.893Z,79.60
2017-11-10T23:02:11.421Z,81.10
2017-11-10T23:04:38.951Z,81.20
2017-11-10T23:07:06.535Z,80.70
2017-11-10T23:09:34.067Z,81.10
2017-11-10T23:12:01.624Z,80.30
2017-11-10T23:14:35.068Z,80.10
2017-11-10T23:17:02.625Z,80.20
2017-11-10T23:19:30.154Z,79.40
2017-11-10T23:21:57.713Z,80.20
2017-11-10T23:24:25.258Z,80.20
2017-11-10T23:26:52.788Z,80.00
2017-11-10T23:29:20.349Z,78.80
2017-11-10T23:31:47.903Z,79.70
2017-11-10T23:34:15.441Z,79.80
2017-11-10T23:36:43.784Z,80.20
2017-11-10T23:39:11.380Z,79.70
2017-11-10T23:41:39.089Z,79.80
2017-11-10T23:44:07.801Z,81.30
2017-11-10T23:46:36.531Z,80.50
2017-11-10T23:49:04.912Z,81.10
2017-11-10T23:51:32.465Z,80.40
2017-11-10T23:53:59.987Z,80.80
2017-11-10T23:56:27.520Z,80.30
2017-11-10T23:58:55.075Z,80.70
